sensor_id;sensor_type;location;lat;lon;timestamp;P1;P2;P0
77481;PMS5003;66582;43.004;-75.010;2023-03-23T00:00:03;29;25;
77481;PMS5003;66582;43.004;-75.010;2023-03-23T00:02:29;18;17;
77481;PMS5003;66582;43.004;-75.010;2023-03-23T00:04:54;22;19;
77481;PMS5003;66582;43.004;-75.010;2023-03-23T00:07:20;23;23;
77481;PMS5003;66582;43.004;-75.010;2023-03-23T00:09:44;34;31;
77481;PMS5003;66582;43.004;-75.010;2023-03-23T00:12:09;31;30;
77481;PMS5003;66582;43.004;-75.010;2023-03-23T00:14:34;31;29;
77481;PMS5003;66582;43.004;-75.010;2023-03-23T00:17:00;22;22;
77481;PMS5003;66582;43.004;-75.010;2023-03-23T00:19:26;23;21;
77481;PMS5003;66582;43.004;-75.010;2023-03-23T00:21:51;21;21;
77481;PMS5003;66582;43.004;-75.010;2023-03-23T00:24:17;27;26;
77481;PMS5003;66582;43.004;-75.010;2023-03-23T00:26:43;25;25;
77481;PMS5003;66582;43.004;-75.010;2023-03-23T00:29:09;25;23;
77481;PMS5003;66582;43.004;-75.010;2023-03-23T00:31:33;27;26;
77481;PMS5003;66582;43.004;-75.010;2023-03-23T00:33:59;19;19;
77481;PMS5003;66582;43.004;-75.010;2023-03-23T00:36:24;24;24;
77481;PMS5003;66582;43.004;-75.010;2023-03-23T00:38:50;24;23;
77481;PMS5003;66582;43.004;-75.010;2023-03-23T00:41:16;44;42;
77481;PMS5003;66582;43.004;-75.010;2023-03-23T00:43:41;30;29;
77481;PMS5003;66582;43.004;-75.010;2023-03-23T00:46:06;36;36;
77481;PMS5003;66582;43.004;-75.010;2023-03-23T00:48:31;31;29;
77481;PMS5003;66582;43.004;-75.010;2023-03-23T00:50:56;48;46;
77481;PMS5003;66582;43.004;-75.010;2023-03-23T00:53:21;36;35;
77481;PMS5003;66582;43.004;-75.010;2023-03-23T00:55:47;44;42;
77481;PMS5003;66582;43.004;-75.010;2023-03-23T00:58:13;31;28;
77481;PMS5003;66582;43.004;-75.010;2023-03-23T01:00:39;28;28;
77481;PMS5003;66582;43.004;-75.010;2023-03-23T01:03:04;26;23;
77481;PMS5003;66582;43.004;-75.010;2023-03-23T01:05:32;26;26;
77481;PMS5003;66582;43.004;-75.010;2023-03-23T01:07:55;27;26;
77481;PMS5003;66582;43.004;-75.010;2023-03-23T01:10:21;22;20;
77481;PMS5003;66582;43.004;-75.010;2023-03-23T01:12:46;57;57;
77481;PMS5003;66582;43.004;-75.010;2023-03-23T01:15:15;79;76;
77481;PMS5003;66582;43.004;-75.010;2023-03-23T01:17:37;50;48;
77481;PMS5003;66582;43.004;-75.010;2023-03-23T01:20:02;45;42;
77481;PMS5003;66582;43.004;-75.010;2023-03-23T01:22:29;30;26;
77481;PMS5003;66582;43.004;-75.010;2023-03-23T01:24:52;17;15;
77481;PMS5003;66582;43.004;-75.010;2023-03-23T01:27:18;20;19;
77481;PMS5003;66582;43.004;-75.010;2023-03-23T01:29:43;19;19;
77481;PMS5003;66582;43.004;-75.010;2023-03-23T01:32:09;22;20;
77481;PMS5003;66582;43.004;-75.010;2023-03-23T01:34:34;20;19;
77481;PMS5003;66582;43.004;-75.010;2023-03-23T01:36:59;21;18;
77481;PMS5003;66582;43.004;-75.010;2023-03-23T01:39:25;18;16;
77481;PMS5003;66582;43.004;-75.010;2023-03-23T01:41:51;23;20;
77481;PMS5003;66582;43.004;-75.010;2023-03-23T01:46:41;21;17;
77481;PMS5003;66582;43.004;-75.010;2023-03-23T01:49:07;20;18;
77481;PMS5003;66582;43.004;-75.010;2023-03-23T01:51:32;19;18;
77481;PMS5003;66582;43.004;-75.010;2023-03-23T01:53:58;20;19;
77481;PMS5003;66582;43.004;-75.010;2023-03-23T01:56:24;25;23;
77481;PMS5003;66582;43.004;-75.010;2023-03-23T01:58:49;23;21;
77481;PMS5003;66582;43.004;-75.010;2023-03-23T02:01:14;34;31;
77481;PMS5003;66582;43.004;-75.010;2023-03-23T02:03:41;30;28;
77481;PMS5003;66582;43.004;-75.010;2023-03-23T02:06:05;26;25;
77481;PMS5003;66582;43.004;-75.010;2023-03-23T02:08:31;25;23;
77481;PMS5003;66582;43.004;-75.010;2023-03-23T02:10:57;25;21;
77481;PMS5003;66582;43.004;-75.010;2023-03-23T02:13:22;19;18;
77481;PMS5003;66582;43.004;-75.010;2023-03-23T02:15:50;29;25;
77481;PMS5003;66582;43.004;-75.010;2023-03-23T02:18:16;23;22;
77481;PMS5003;66582;43.004;-75.010;2023-03-23T02:20:43;23;22;
77481;PMS5003;66582;43.004;-75.010;2023-03-23T02:23:08;29;27;
77481;PMS5003;66582;43.004;-75.010;2023-03-23T02:25:34;28;26;
77481;PMS5003;66582;43.004;-75.010;2023-03-23T02:30:25;24;22;
77481;PMS5003;66582;43.004;-75.010;2023-03-23T02:32:51;23;23;
77481;PMS5003;66582;43.004;-75.010;2023-03-23T02:35:12;22;22;
77481;PMS5003;66582;43.004;-75.010;2023-03-23T02:37:38;19;19;
77481;PMS5003;66582;43.004;-75.010;2023-03-23T02:40:03;19;17;
77481;PMS5003;66582;43.004;-75.010;2023-03-23T02:42:28;25;23;
77481;PMS5003;66582;43.004;-75.010;2023-03-23T02:44:53;24;21;
77481;PMS5003;66582;43.004;-75.010;2023-03-23T02:47:19;24;23;
77481;PMS5003;66582;43.004;-75.010;2023-03-23T02:49:46;25;24;
77481;PMS5003;66582;43.004;-75.010;2023-03-23T02:52:10;26;25;
77481;PMS5003;66582;43.004;-75.010;2023-03-23T02:54:35;26;22;
77481;PMS5003;66582;43.004;-75.010;2023-03-23T02:57:00;21;21;
77481;PMS5003;66582;43.004;-75.010;2023-03-23T02:59:26;22;21;
77481;PMS5003;66582;43.004;-75.010;2023-03-23T03:01:53;24;22;
77481;PMS5003;66582;43.004;-75.010;2023-03-23T03:04:18;28;24;
77481;PMS5003;66582;43.004;-75.010;2023-03-23T03:06:45;20;20;
77481;PMS5003;66582;43.004;-75.010;2023-03-23T03:09:09;23;22;
77481;PMS5003;66582;43.004;-75.010;2023-03-23T03:11:33;25;23;
77481;PMS5003;66582;43.004;-75.010;2023-03-23T03:13:58;20;19;
77481;PMS5003;66582;43.004;-75.010;2023-03-23T03:16:24;27;22;
77481;PMS5003;66582;43.004;-75.010;2023-03-23T03:18:50;24;22;
77481;PMS5003;66582;43.004;-75.010;2023-03-23T03:21:15;25;23;
77481;PMS5003;66582;43.004;-75.010;2023-03-23T03:23:40;22;21;
77481;PMS5003;66582;43.004;-75.010;2023-03-23T03:26:06;25;22;
77481;PMS5003;66582;43.004;-75.010;2023-03-23T03:28:32;18;17;
77481;PMS5003;66582;43.004;-75.010;2023-03-23T03:30:57;19;18;
77481;PMS5003;66582;43.004;-75.010;2023-03-23T03:33:22;17;16;
77481;PMS5003;66582;43.004;-75.010;2023-03-23T03:35:48;13;12;
77481;PMS5003;66582;43.004;-75.010;2023-03-23T03:38:14;14;14;
77481;PMS5003;66582;43.004;-75.010;2023-03-23T03:40:40;20;19;
77481;PMS5003;66582;43.004;-75.010;2023-03-23T03:43:04;18;16;
77481;PMS5003;66582;43.004;-75.010;2023-03-23T03:45:30;17;15;
77481;PMS5003;66582;43.004;-75.010;2023-03-23T03:47:55;16;15;
77481;PMS5003;66582;43.004;-75.010;2023-03-23T03:50:20;19;18;
77481;PMS5003;66582;43.004;-75.010;2023-03-23T03:52:45;27;24;
77481;PMS5003;66582;43.004;-75.010;2023-03-23T03:55:11;24;23;
77481;PMS5003;66582;43.004;-75.010;2023-03-23T03:57:36;26;24;
77481;PMS5003;66582;43.004;-75.010;2023-03-23T04:00:02;16;16;
77481;PMS5003;66582;43.004;-75.010;2023-03-23T04:02:27;17;15;
77481;PMS5003;66582;43.004;-75.010;2023-03-23T04:04:52;20;19;
77481;PMS5003;66582;43.004;-75.010;2023-03-23T04:07:20;21;18;
77481;PMS5003;66582;43.004;-75.010;2023-03-23T04:09:45;20;20;
77481;PMS5003;66582;43.004;-75.010;2023-03-23T04:12:08;25;24;
77481;PMS5003;66582;43.004;-75.010;2023-03-23T04:14:35;21;20;
77481;PMS5003;66582;43.004;-75.010;2023-03-23T04:16:59;21;20;
77481;PMS5003;66582;43.004;-75.010;2023-03-23T04:19:25;18;16;
77481;PMS5003;66582;43.004;-75.010;2023-03-23T04:21:51;22;19;
77481;PMS5003;66582;43.004;-75.010;2023-03-23T04:24:15;16;13;
77481;PMS5003;66582;43.004;-75.010;2023-03-23T04:26:41;23;21;
77481;PMS5003;66582;43.004;-75.010;2023-03-23T04:29:06;19;18;
77481;PMS5003;66582;43.004;-75.010;2023-03-23T04:31:31;19;17;
77481;PMS5003;66582;43.004;-75.010;2023-03-23T04:33:57;19;16;
77481;PMS5003;66582;43.004;-75.010;2023-03-23T04:36:23;19;18;
77481;PMS5003;66582;43.004;-75.010;2023-03-23T04:38:48;19;19;
77481;PMS5003;66582;43.004;-75.010;2023-03-23T04:41:13;15;12;
77481;PMS5003;66582;43.004;-75.010;2023-03-23T04:43:41;16;14;
77481;PMS5003;66582;43.004;-75.010;2023-03-23T04:46:04;19;17;
77481;PMS5003;66582;43.004;-75.010;2023-03-23T04:48:30;17;14;
77481;PMS5003;66582;43.004;-75.010;2023-03-23T04:50:55;18;17;
77481;PMS5003;66582;43.004;-75.010;2023-03-23T04:53:20;16;15;
77481;PMS5003;66582;43.004;-75.010;2023-03-23T04:55:46;14;11;
77481;PMS5003;66582;43.004;-75.010;2023-03-23T04:58:11;12;12;
77481;PMS5003;66582;43.004;-75.010;2023-03-23T05:00:36;10;9;
77481;PMS5003;66582;43.004;-75.010;2023-03-23T05:03:01;14;12;
77481;PMS5003;66582;43.004;-75.010;2023-03-23T05:05:26;14;13;
77481;PMS5003;66582;43.004;-75.010;2023-03-23T05:07:52;14;13;
77481;PMS5003;66582;43.004;-75.010;2023-03-23T05:10:17;9;9;
77481;PMS5003;66582;43.004;-75.010;2023-03-23T05:12:43;14;14;
77481;PMS5003;66582;43.004;-75.010;2023-03-23T05:15:09;9;8;
77481;PMS5003;66582;43.004;-75.010;2023-03-23T05:17:34;12;11;
77481;PMS5003;66582;43.004;-75.010;2023-03-23T05:19:59;11;9;
77481;PMS5003;66582;43.004;-75.010;2023-03-23T05:22:26;12;11;
77481;PMS5003;66582;43.004;-75.010;2023-03-23T05:24:49;11;10;
77481;PMS5003;66582;43.004;-75.010;2023-03-23T05:27:14;12;10;
77481;PMS5003;66582;43.004;-75.010;2023-03-23T05:29:40;13;13;
77481;PMS5003;66582;43.004;-75.010;2023-03-23T05:32:05;10;10;
77481;PMS5003;66582;43.004;-75.010;2023-03-23T05:34:30;14;13;
77481;PMS5003;66582;43.004;-75.010;2023-03-23T05:36:55;13;11;
77481;PMS5003;66582;43.004;-75.010;2023-03-23T05:39:21;9;9;
77481;PMS5003;66582;43.004;-75.010;2023-03-23T05:41:46;8;8;
77481;PMS5003;66582;43.004;-75.010;2023-03-23T05:44:11;10;10;
77481;PMS5003;66582;43.004;-75.010;2023-03-23T05:46:37;9;9;
77481;PMS5003;66582;43.004;-75.010;2023-03-23T05:49:02;12;9;
77481;PMS5003;66582;43.004;-75.010;2023-03-23T05:51:27;10;10;
77481;PMS5003;66582;43.004;-75.010;2023-03-23T05:53:52;12;12;
77481;PMS5003;66582;43.004;-75.010;2023-03-23T05:56:18;10;9;
77481;PMS5003;66582;43.004;-75.010;2023-03-23T05:58:44;10;9;
77481;PMS5003;66582;43.004;-75.010;2023-03-23T06:01:09;11;10;
77481;PMS5003;66582;43.004;-75.010;2023-03-23T06:03:34;10;9;
77481;PMS5003;66582;43.004;-75.010;2023-03-23T06:05:59;12;11;
77481;PMS5003;66582;43.004;-75.010;2023-03-23T06:08:24;14;14;
77481;PMS5003;66582;43.004;-75.010;2023-03-23T06:10:50;15;14;
77481;PMS5003;66582;43.004;-75.010;2023-03-23T06:13:15;11;11;
77481;PMS5003;66582;43.004;-75.010;2023-03-23T06:15:40;14;11;
77481;PMS5003;66582;43.004;-75.010;2023-03-23T06:18:05;13;13;
77481;PMS5003;66582;43.004;-75.010;2023-03-23T06:20:31;10;9;
77481;PMS5003;66582;43.004;-75.010;2023-03-23T06:22:55;10;9;
77481;PMS5003;66582;43.004;-75.010;2023-03-23T06:25:24;14;12;
77481;PMS5003;66582;43.004;-75.010;2023-03-23T06:27:46;13;12;
77481;PMS5003;66582;43.004;-75.010;2023-03-23T06:30:12;9;9;
77481;PMS5003;66582;43.004;-75.010;2023-03-23T06:32:37;9;8;
77481;PMS5003;66582;43.004;-75.010;2023-03-23T06:35:02;11;11;
77481;PMS5003;66582;43.004;-75.010;2023-03-23T06:37:28;12;11;
77481;PMS5003;66582;43.004;-75.010;2023-03-23T06:39:53;12;11;
77481;PMS5003;66582;43.004;-75.010;2023-03-23T06:42:19;17;11;
77481;PMS5003;66582;43.004;-75.010;2023-03-23T06:44:44;13;13;
77481;PMS5003;66582;43.004;-75.010;2023-03-23T06:47:09;12;11;
77481;PMS5003;66582;43.004;-75.010;2023-03-23T06:49:35;14;13;
77481;PMS5003;66582;43.004;-75.010;2023-03-23T06:52:00;16;16;
77481;PMS5003;66582;43.004;-75.010;2023-03-23T06:54:25;16;16;
77481;PMS5003;66582;43.004;-75.010;2023-03-23T06:56:51;19;18;
77481;PMS5003;66582;43.004;-75.010;2023-03-23T06:59:16;15;14;
77481;PMS5003;66582;43.004;-75.010;2023-03-23T07:01:41;17;14;
77481;PMS5003;66582;43.004;-75.010;2023-03-23T07:04:06;15;14;
77481;PMS5003;66582;43.004;-75.010;2023-03-23T07:06:32;15;14;
77481;PMS5003;66582;43.004;-75.010;2023-03-23T07:08:57;17;16;
77481;PMS5003;66582;43.004;-75.010;2023-03-23T07:11:22;13;10;
77481;PMS5003;66582;43.004;-75.010;2023-03-23T07:13:48;16;14;
77481;PMS5003;66582;43.004;-75.010;2023-03-23T07:16:13;15;15;
77481;PMS5003;66582;43.004;-75.010;2023-03-23T07:18:38;10;9;
77481;PMS5003;66582;43.004;-75.010;2023-03-23T07:21:04;13;13;
77481;PMS5003;66582;43.004;-75.010;2023-03-23T07:23:29;15;14;
77481;PMS5003;66582;43.004;-75.010;2023-03-23T07:25:54;14;14;
77481;PMS5003;66582;43.004;-75.010;2023-03-23T07:28:20;11;11;
77481;PMS5003;66582;43.004;-75.010;2023-03-23T07:30:45;14;14;
77481;PMS5003;66582;43.004;-75.010;2023-03-23T07:33:10;14;13;
77481;PMS5003;66582;43.004;-75.010;2023-03-23T07:35:35;16;15;
77481;PMS5003;66582;43.004;-75.010;2023-03-23T07:38:00;14;14;
77481;PMS5003;66582;43.004;-75.010;2023-03-23T07:40:26;15;14;
77481;PMS5003;66582;43.004;-75.010;2023-03-23T07:42:52;17;16;
77481;PMS5003;66582;43.004;-75.010;2023-03-23T07:45:17;14;14;
77481;PMS5003;66582;43.004;-75.010;2023-03-23T07:47:42;15;15;
77481;PMS5003;66582;43.004;-75.010;2023-03-23T07:50:09;16;15;
77481;PMS5003;66582;43.004;-75.010;2023-03-23T07:52:33;16;15;
77481;PMS5003;66582;43.004;-75.010;2023-03-23T07:54:58;15;15;
77481;PMS5003;66582;43.004;-75.010;2023-03-23T07:57:24;17;15;
77481;PMS5003;66582;43.004;-75.010;2023-03-23T07:59:49;15;14;
77481;PMS5003;66582;43.004;-75.010;2023-03-23T08:02:14;22;20;
77481;PMS5003;66582;43.004;-75.010;2023-03-23T08:04:40;19;17;
77481;PMS5003;66582;43.004;-75.010;2023-03-23T08:07:06;13;13;
77481;PMS5003;66582;43.004;-75.010;2023-03-23T08:09:31;15;15;
77481;PMS5003;66582;43.004;-75.010;2023-03-23T08:11:56;18;17;
77481;PMS5003;66582;43.004;-75.010;2023-03-23T08:14:22;15;15;
77481;PMS5003;66582;43.004;-75.010;2023-03-23T08:16:47;16;15;
77481;PMS5003;66582;43.004;-75.010;2023-03-23T08:19:12;17;15;
77481;PMS5003;66582;43.004;-75.010;2023-03-23T08:21:38;16;15;
77481;PMS5003;66582;43.004;-75.010;2023-03-23T08:24:03;16;16;
77481;PMS5003;66582;43.004;-75.010;2023-03-23T08:26:28;16;15;
77481;PMS5003;66582;43.004;-75.010;2023-03-23T08:28:54;19;18;
77481;PMS5003;66582;43.004;-75.010;2023-03-23T08:31:20;14;14;
77481;PMS5003;66582;43.004;-75.010;2023-03-23T08:33:45;15;15;
77481;PMS5003;66582;43.004;-75.010;2023-03-23T08:36:10;16;15;
77481;PMS5003;66582;43.004;-75.010;2023-03-23T08:38:36;19;18;
77481;PMS5003;66582;43.004;-75.010;2023-03-23T08:41:03;16;16;
77481;PMS5003;66582;43.004;-75.010;2023-03-23T08:43:27;17;17;
77481;PMS5003;66582;43.004;-75.010;2023-03-23T08:45:52;17;16;
77481;PMS5003;66582;43.004;-75.010;2023-03-23T08:48:18;17;17;
77481;PMS5003;66582;43.004;-75.010;2023-03-23T08:50:43;17;16;
77481;PMS5003;66582;43.004;-75.010;2023-03-23T08:53:08;16;16;
77481;PMS5003;66582;43.004;-75.010;2023-03-23T08:55:33;17;17;
77481;PMS5003;66582;43.004;-75.010;2023-03-23T08:57:59;22;20;
77481;PMS5003;66582;43.004;-75.010;2023-03-23T09:00:24;19;18;
77481;PMS5003;66582;43.004;-75.010;2023-03-23T09:02:52;20;20;
77481;PMS5003;66582;43.004;-75.010;2023-03-23T09:05:16;23;19;
77481;PMS5003;66582;43.004;-75.010;2023-03-23T09:07:49;20;19;
77481;PMS5003;66582;43.004;-75.010;2023-03-23T09:10:06;17;16;
77481;PMS5003;66582;43.004;-75.010;2023-03-23T09:12:31;16;16;
77481;PMS5003;66582;43.004;-75.010;2023-03-23T09:14:56;20;19;
77481;PMS5003;66582;43.004;-75.010;2023-03-23T09:17:23;15;15;
77481;PMS5003;66582;43.004;-75.010;2023-03-23T09:19:47;19;18;
77481;PMS5003;66582;43.004;-75.010;2023-03-23T09:22:13;21;17;
77481;PMS5003;66582;43.004;-75.010;2023-03-23T09:24:38;18;17;
77481;PMS5003;66582;43.004;-75.010;2023-03-23T09:27:04;17;16;
77481;PMS5003;66582;43.004;-75.010;2023-03-23T09:29:29;18;17;
77481;PMS5003;66582;43.004;-75.010;2023-03-23T09:31:55;17;17;
77481;PMS5003;66582;43.004;-75.010;2023-03-23T09:34:21;20;19;
77481;PMS5003;66582;43.004;-75.010;2023-03-23T09:36:46;17;16;
77481;PMS5003;66582;43.004;-75.010;2023-03-23T09:39:11;19;17;
77481;PMS5003;66582;43.004;-75.010;2023-03-23T09:41:41;18;16;
77481;PMS5003;66582;43.004;-75.010;2023-03-23T09:44:03;22;20;
77481;PMS5003;66582;43.004;-75.010;2023-03-23T09:46:30;15;15;
77481;PMS5003;66582;43.004;-75.010;2023-03-23T09:48:53;19;18;
77481;PMS5003;66582;43.004;-75.010;2023-03-23T09:51:21;17;16;
77481;PMS5003;66582;43.004;-75.010;2023-03-23T09:53:44;21;20;
77481;PMS5003;66582;43.004;-75.010;2023-03-23T09:56:09;21;20;
77481;PMS5003;66582;43.004;-75.010;2023-03-23T09:58:35;19;18;
77481;PMS5003;66582;43.004;-75.010;2023-03-23T10:01:00;23;21;
77481;PMS5003;66582;43.004;-75.010;2023-03-23T10:03:25;20;19;
77481;PMS5003;66582;43.004;-75.010;2023-03-23T10:05:50;22;19;
77481;PMS5003;66582;43.004;-75.010;2023-03-23T10:08:16;16;16;
77481;PMS5003;66582;43.004;-75.010;2023-03-23T10:10:45;16;15;
77481;PMS5003;66582;43.004;-75.010;2023-03-23T10:13:08;21;17;
77481;PMS5003;66582;43.004;-75.010;2023-03-23T10:15:32;16;15;
77481;PMS5003;66582;43.004;-75.010;2023-03-23T10:17:57;21;19;
77481;PMS5003;66582;43.004;-75.010;2023-03-23T10:20:28;19;18;
77481;PMS5003;66582;43.004;-75.010;2023-03-23T10:22:49;17;15;
77481;PMS5003;66582;43.004;-75.010;2023-03-23T10:25:15;18;17;
77481;PMS5003;66582;43.004;-75.010;2023-03-23T10:27:40;20;18;
77481;PMS5003;66582;43.004;-75.010;2023-03-23T10:30:11;24;22;
77481;PMS5003;66582;43.004;-75.010;2023-03-23T10:32:39;16;15;
77481;PMS5003;66582;43.004;-75.010;2023-03-23T10:34:56;16;16;
77481;PMS5003;66582;43.004;-75.010;2023-03-23T10:37:21;21;18;
77481;PMS5003;66582;43.004;-75.010;2023-03-23T10:39:48;21;20;
77481;PMS5003;66582;43.004;-75.010;2023-03-23T10:42:11;18;16;
77481;PMS5003;66582;43.004;-75.010;2023-03-23T10:44:37;19;18;
77481;PMS5003;66582;43.004;-75.010;2023-03-23T10:47:03;19;17;
77481;PMS5003;66582;43.004;-75.010;2023-03-23T10:49:28;16;15;
77481;PMS5003;66582;43.004;-75.010;2023-03-23T10:51:56;21;18;
77481;PMS5003;66582;43.004;-75.010;2023-03-23T10:56:44;19;19;
77481;PMS5003;66582;43.004;-75.010;2023-03-23T10:59:11;23;23;
77481;PMS5003;66582;43.004;-75.010;2023-03-23T11:01:35;25;25;
77481;PMS5003;66582;43.004;-75.010;2023-03-23T11:04:01;26;21;
77481;PMS5003;66582;43.004;-75.010;2023-03-23T11:06:26;24;23;
77481;PMS5003;66582;43.004;-75.010;2023-03-23T11:08:52;21;20;
77481;PMS5003;66582;43.004;-75.010;2023-03-23T11:11:17;20;18;
77481;PMS5003;66582;43.004;-75.010;2023-03-23T11:13:42;17;17;
77481;PMS5003;66582;43.004;-75.010;2023-03-23T11:16:07;19;18;
77481;PMS5003;66582;43.004;-75.010;2023-03-23T11:18:35;20;19;
77481;PMS5003;66582;43.004;-75.010;2023-03-23T11:20:58;23;21;
77481;PMS5003;66582;43.004;-75.010;2023-03-23T11:23:24;19;19;
77481;PMS5003;66582;43.004;-75.010;2023-03-23T11:25:52;19;19;
77481;PMS5003;66582;43.004;-75.010;2023-03-23T11:28:14;20;17;
77481;PMS5003;66582;43.004;-75.010;2023-03-23T11:30:40;17;17;
77481;PMS5003;66582;43.004;-75.010;2023-03-23T11:33:05;20;19;
77481;PMS5003;66582;43.004;-75.010;2023-03-23T11:35:30;21;20;
77481;PMS5003;66582;43.004;-75.010;2023-03-23T11:37:56;20;17;
77481;PMS5003;66582;43.004;-75.010;2023-03-23T11:40:22;19;19;
77481;PMS5003;66582;43.004;-75.010;2023-03-23T11:42:48;17;17;
77481;PMS5003;66582;43.004;-75.010;2023-03-23T11:45:14;19;18;
77481;PMS5003;66582;43.004;-75.010;2023-03-23T11:47:39;19;19;
77481;PMS5003;66582;43.004;-75.010;2023-03-23T11:50:04;22;21;
77481;PMS5003;66582;43.004;-75.010;2023-03-23T11:52:32;19;18;
77481;PMS5003;66582;43.004;-75.010;2023-03-23T11:54:55;20;19;
77481;PMS5003;66582;43.004;-75.010;2023-03-23T11:57:19;16;16;
77481;PMS5003;66582;43.004;-75.010;2023-03-23T11:59:46;21;20;
77481;PMS5003;66582;43.004;-75.010;2023-03-23T12:04:39;19;17;
77481;PMS5003;66582;43.004;-75.010;2023-03-23T12:07:06;20;17;
77481;PMS5003;66582;43.004;-75.010;2023-03-23T12:09:30;19;18;
77481;PMS5003;66582;43.004;-75.010;2023-03-23T12:11:57;15;12;
77481;PMS5003;66582;43.004;-75.010;2023-03-23T12:14:19;18;17;
77481;PMS5003;66582;43.004;-75.010;2023-03-23T12:16:48;19;19;
77481;PMS5003;66582;43.004;-75.010;2023-03-23T12:19:10;20;19;
77481;PMS5003;66582;43.004;-75.010;2023-03-23T12:21:36;20;19;
77481;PMS5003;66582;43.004;-75.010;2023-03-23T12:24:03;20;17;
77481;PMS5003;66582;43.004;-75.010;2023-03-23T12:26:26;19;18;
77481;PMS5003;66582;43.004;-75.010;2023-03-23T12:28:59;21;20;
77481;PMS5003;66582;43.004;-75.010;2023-03-23T12:31:20;19;19;
77481;PMS5003;66582;43.004;-75.010;2023-03-23T12:33:45;19;17;
77481;PMS5003;66582;43.004;-75.010;2023-03-23T12:36:09;30;26;
77481;PMS5003;66582;43.004;-75.010;2023-03-23T12:38:40;33;33;
77481;PMS5003;66582;43.004;-75.010;2023-03-23T12:41:01;28;26;
77481;PMS5003;66582;43.004;-75.010;2023-03-23T12:43:26;20;18;
77481;PMS5003;66582;43.004;-75.010;2023-03-23T12:45:53;26;23;
77481;PMS5003;66582;43.004;-75.010;2023-03-23T12:48:15;23;22;
77481;PMS5003;66582;43.004;-75.010;2023-03-23T12:50:42;22;21;
77481;PMS5003;66582;43.004;-75.010;2023-03-23T12:53:06;22;21;
77481;PMS5003;66582;43.004;-75.010;2023-03-23T12:55:32;19;18;
77481;PMS5003;66582;43.004;-75.010;2023-03-23T12:57:58;21;20;
77481;PMS5003;66582;43.004;-75.010;2023-03-23T13:00:23;19;18;
77481;PMS5003;66582;43.004;-75.010;2023-03-23T13:02:49;20;19;
77481;PMS5003;66582;43.004;-75.010;2023-03-23T13:05:25;22;17;
77481;PMS5003;66582;43.004;-75.010;2023-03-23T13:07:41;21;20;
77481;PMS5003;66582;43.004;-75.010;2023-03-23T13:10:07;20;19;
77481;PMS5003;66582;43.004;-75.010;2023-03-23T13:12:30;18;18;
77481;PMS5003;66582;43.004;-75.010;2023-03-23T13:14:59;21;20;
77481;PMS5003;66582;43.004;-75.010;2023-03-23T13:17:25;20;19;
77481;PMS5003;66582;43.004;-75.010;2023-03-23T13:22:13;21;20;
77481;PMS5003;66582;43.004;-75.010;2023-03-23T13:24:39;20;19;
77481;PMS5003;66582;43.004;-75.010;2023-03-23T13:27:04;19;19;
77481;PMS5003;66582;43.004;-75.010;2023-03-23T13:29:29;20;19;
77481;PMS5003;66582;43.004;-75.010;2023-03-23T13:34:19;25;20;
77481;PMS5003;66582;43.004;-75.010;2023-03-23T13:36:44;21;20;
77481;PMS5003;66582;43.004;-75.010;2023-03-23T13:44:06;22;20;
77481;PMS5003;66582;43.004;-75.010;2023-03-23T13:46:28;25;25;
77481;PMS5003;66582;43.004;-75.010;2023-03-23T13:51:25;21;19;
77481;PMS5003;66582;43.004;-75.010;2023-03-23T13:53:43;18;17;
77481;PMS5003;66582;43.004;-75.010;2023-03-23T13:56:13;19;18;
77481;PMS5003;66582;43.004;-75.010;2023-03-23T14:01:02;22;21;
77481;PMS5003;66582;43.004;-75.010;2023-03-23T14:03:25;20;20;
77481;PMS5003;66582;43.004;-75.010;2023-03-23T14:05:50;21;21;
77481;PMS5003;66582;43.004;-75.010;2023-03-23T14:10:41;20;19;
77481;PMS5003;66582;43.004;-75.010;2023-03-23T14:13:16;19;17;
77481;PMS5003;66582;43.004;-75.010;2023-03-23T14:15:44;20;18;
77481;PMS5003;66582;43.004;-75.010;2023-03-23T14:17:56;18;18;
77481;PMS5003;66582;43.004;-75.010;2023-03-23T14:20:24;20;19;
77481;PMS5003;66582;43.004;-75.010;2023-03-23T14:22:47;22;21;
77481;PMS5003;66582;43.004;-75.010;2023-03-23T14:25:14;20;19;
77481;PMS5003;66582;43.004;-75.010;2023-03-23T14:27:38;19;19;
77481;PMS5003;66582;43.004;-75.010;2023-03-23T14:30:05;20;18;
77481;PMS5003;66582;43.004;-75.010;2023-03-23T14:32:30;21;19;
77481;PMS5003;66582;43.004;-75.010;2023-03-23T14:34:55;21;21;
77481;PMS5003;66582;43.004;-75.010;2023-03-23T14:37:20;21;20;
77481;PMS5003;66582;43.004;-75.010;2023-03-23T14:39:47;24;22;
77481;PMS5003;66582;43.004;-75.010;2023-03-23T14:42:12;25;23;
77481;PMS5003;66582;43.004;-75.010;2023-03-23T14:44:38;18;18;
77481;PMS5003;66582;43.004;-75.010;2023-03-23T14:47:05;19;19;
77481;PMS5003;66582;43.004;-75.010;2023-03-23T14:49:29;26;24;
77481;PMS5003;66582;43.004;-75.010;2023-03-23T14:51:53;26;25;
77481;PMS5003;66582;43.004;-75.010;2023-03-23T14:54:21;25;22;
77481;PMS5003;66582;43.004;-75.010;2023-03-23T14:56:44;22;21;
77481;PMS5003;66582;43.004;-75.010;2023-03-23T14:59:09;25;25;
77481;PMS5003;66582;43.004;-75.010;2023-03-23T15:01:35;20;20;
77481;PMS5003;66582;43.004;-75.010;2023-03-23T15:04:00;23;22;
77481;PMS5003;66582;43.004;-75.010;2023-03-23T15:06:26;21;21;
77481;PMS5003;66582;43.004;-75.010;2023-03-23T15:08:52;19;18;
77481;PMS5003;66582;43.004;-75.010;2023-03-23T15:11:21;23;21;
77481;PMS5003;66582;43.004;-75.010;2023-03-23T15:13:43;21;19;
77481;PMS5003;66582;43.004;-75.010;2023-03-23T15:16:11;22;21;
77481;PMS5003;66582;43.004;-75.010;2023-03-23T15:18:34;21;20;
77481;PMS5003;66582;43.004;-75.010;2023-03-23T15:20:58;24;22;
77481;PMS5003;66582;43.004;-75.010;2023-03-23T15:23:26;18;18;
77481;PMS5003;66582;43.004;-75.010;2023-03-23T15:25:50;20;19;
77481;PMS5003;66582;43.004;-75.010;2023-03-23T15:28:16;22;21;
77481;PMS5003;66582;43.004;-75.010;2023-03-23T15:30:46;20;20;
77481;PMS5003;66582;43.004;-75.010;2023-03-23T15:33:09;25;23;
77481;PMS5003;66582;43.004;-75.010;2023-03-23T15:35:34;23;22;
77481;PMS5003;66582;43.004;-75.010;2023-03-23T15:37:58;23;22;
77481;PMS5003;66582;43.004;-75.010;2023-03-23T15:40:24;21;20;
77481;PMS5003;66582;43.004;-75.010;2023-03-23T15:42:49;19;19;
77481;PMS5003;66582;43.004;-75.010;2023-03-23T15:45:24;22;22;
77481;PMS5003;66582;43.004;-75.010;2023-03-23T15:47:44;22;22;
77481;PMS5003;66582;43.004;-75.010;2023-03-23T15:50:08;20;19;
77481;PMS5003;66582;43.004;-75.010;2023-03-23T15:52:30;19;18;
77481;PMS5003;66582;43.004;-75.010;2023-03-23T15:54:55;18;18;
77481;PMS5003;66582;43.004;-75.010;2023-03-23T15:57:21;19;19;
77481;PMS5003;66582;43.004;-75.010;2023-03-23T15:59:46;20;19;